Time;durP1;ratioP1;P1;durP2;ratioP2;P2;SDS_P1;SDS_P2;PMS_P1;PMS_P2;Temp;Humidity;BMP_temperature;BMP_pressure;BME280_temperature;BME280_humidity;BME280_pressure;Samples;Min_cycle;Max_cycle;Signal;HPM_P1;HPM_P2
2023/05/16 00:00:57;;;;;;;12.65;6.47;;;;;;;11.73;100.00;100283.78;4989940;28;20050;-68
2023/05/16 00:03:24;;;;;;;12.20;6.05;;;;;;;11.68;100.00;100284.31;4975087;28;20550;-68
2023/05/16 00:05:50;;;;;;;9.30;6.30;;;;;;;11.67;100.00;100294.22;4971150;28;20110;-68
2023/05/16 00:08:17;;;;;;;9.25;7.30;;;;;;;11.65;100.00;100293.50;4971418;28;20054;-69
2023/05/16 00:10:44;;;;;;;14.27;6.82;;;;;;;11.59;100.00;100296.94;4971538;28;20510;-68
2023/05/16 00:13:10;;;;;;;11.32;6.60;;;;;;;11.68;100.00;100298.56;4971570;28;20053;-68
2023/05/16 00:15:37;;;;;;;12.57;7.00;;;;;;;11.61;100.00;100302.13;4971456;28;20499;-68
2023/05/16 00:18:04;;;;;;;12.88;7.05;;;;;;;11.55;100.00;100302.81;4970748;28;20078;-71
2023/05/16 00:20:31;;;;;;;10.68;7.75;;;;;;;11.67;100.00;100302.28;4968778;28;20168;-69
2023/05/16 00:22:59;;;;;;;13.25;8.02;;;;;;;11.66;100.00;100302.47;4971371;28;20042;-68
2023/05/16 00:25:27;;;;;;;13.10;8.25;;;;;;;11.53;100.00;100307.56;4972085;28;20451;-68
2023/05/16 00:27:54;;;;;;;13.45;7.85;;;;;;;11.57;100.00;100298.94;4971224;28;20058;-69
2023/05/16 00:30:21;;;;;;;15.63;8.77;;;;;;;11.52;100.00;100303.16;4971204;28;20537;-68
2023/05/16 00:32:48;;;;;;;15.00;8.65;;;;;;;11.59;100.00;100302.31;4971189;28;20054;-71
2023/05/16 00:35:15;;;;;;;11.90;8.57;;;;;;;11.61;100.00;100304.81;4971795;28;20077;-75
2023/05/16 00:37:41;;;;;;;15.55;9.23;;;;;;;11.52;100.00;100304.03;4967981;28;20043;-75
2023/05/16 00:40:08;;;;;;;11.35;8.75;;;;;;;11.50;100.00;100308.72;4978921;28;20145;-74
2023/05/16 00:42:35;;;;;;;20.70;8.93;;;;;;;11.41;100.00;100305.28;4970496;28;20085;-76
2023/05/16 00:45:01;;;;;;;12.65;9.27;;;;;;;11.30;100.00;100308.31;4970803;28;20047;-75
2023/05/16 00:47:28;;;;;;;14.35;9.98;;;;;;;11.24;100.00;100314.41;4970113;28;20055;-76
2023/05/16 00:49:55;;;;;;;17.90;10.63;;;;;;;11.21;100.00;100322.81;4969382;28;20055;-76
2023/05/16 00:52:22;;;;;;;14.70;10.57;;;;;;;11.28;100.00;100315.75;4970335;28;20050;-75
2023/05/16 00:54:49;;;;;;;17.30;10.68;;;;;;;11.27;100.00;100314.03;4964183;28;20049;-75
2023/05/16 00:57:16;;;;;;;27.67;13.15;;;;;;;10.99;100.00;100317.16;4973099;28;20061;-73
2023/05/16 00:59:45;;;;;;;22.25;12.55;;;;;;;11.01;100.00;100318.88;4974089;28;20047;-75
2023/05/16 01:02:12;;;;;;;17.50;11.82;;;;;;;11.07;100.00;100328.91;4985064;28;20050;-75
2023/05/16 01:04:39;;;;;;;20.58;12.85;;;;;;;11.07;100.00;100332.44;5013327;28;20070;-74
2023/05/16 01:07:24;;;;;;;20.50;14.18;;;;;;;10.92;100.00;100332.28;5012103;28;20125;-74
2023/05/16 01:09:51;;;;;;;22.48;12.50;;;;;;;11.13;100.00;100330.88;4992014;28;20046;-76
2023/05/16 01:12:55;;;;;;;31.70;13.70;;;;;;;10.79;100.00;100340.06;4992359;28;20414;-75
2023/05/16 01:15:30;;;;;;;22.55;13.88;;;;;;;10.92;100.00;100340.34;4993040;28;20137;-76
2023/05/16 01:18:07;;;;;;;19.50;13.80;;;;;;;10.81;100.00;100335.34;4991568;28;20050;-76
2023/05/16 01:21:03;;;;;;;20.90;14.00;;;;;;;10.94;100.00;100346.38;4992444;28;20105;-74
2023/05/16 01:23:45;;;;;;;17.17;13.52;;;;;;;10.93;100.00;100351.94;4990791;28;20069;-75
2023/05/16 01:26:21;;;;;;;21.95;14.35;;;;;;;10.94;100.00;100351.75;4991728;28;20056;-76
2023/05/16 01:28:50;;;;;;;22.90;13.75;;;;;;;10.86;100.00;100364.34;4991572;28;20042;-76
2023/05/16 01:31:17;;;;;;;33.83;14.93;;;;;;;10.62;100.00;100357.19;4992128;28;20141;-75
2023/05/16 01:33:43;;;;;;;29.33;13.90;;;;;;;10.65;100.00;100365.75;4991780;28;20054;-76
2023/05/16 01:36:14;;;;;;;29.83;13.60;;;;;;;10.56;100.00;100366.75;4991192;28;20078;-75
2023/05/16 01:38:49;;;;;;;24.45;14.50;;;;;;;10.56;100.00;100373.97;4989391;28;20060;-75
2023/05/16 01:41:40;;;;;;;23.92;14.07;;;;;;;10.53;100.00;100385.03;4993298;28;20054;-75
2023/05/16 01:44:15;;;;;;;27.88;13.85;;;;;;;10.50;100.00;100387.00;4992979;28;20446;-68
2023/05/16 01:46:44;;;;;;;20.73;13.50;;;;;;;10.35;100.00;100388.66;4993344;28;20452;-68
2023/05/16 01:49:18;;;;;;;21.52;13.35;;;;;;;10.25;100.00;100382.63;4983057;28;20052;-68
2023/05/16 01:51:52;;;;;;;17.38;13.68;;;;;;;10.15;100.00;100396.19;4992136;28;20056;-68
2023/05/16 01:54:23;;;;;;;21.70;14.07;;;;;;;10.13;100.00;100398.22;4992483;28;20047;-68
2023/05/16 01:56:52;;;;;;;23.65;14.13;;;;;;;10.11;100.00;100407.41;4993220;28;20112;-69
2023/05/16 01:59:23;;;;;;;21.35;12.90;;;;;;;10.01;100.00;100410.22;4992553;28;20058;-68
2023/05/16 02:01:58;;;;;;;21.70;13.57;;;;;;;9.99;100.00;100415.78;4989916;28;20474;-68
2023/05/16 02:04:24;;;;;;;17.60;12.68;;;;;;;9.77;100.00;100413.69;4973001;28;20415;-68
2023/05/16 02:06:51;;;;;;;25.13;13.27;;;;;;;9.77;100.00;100417.19;4973300;28;20133;-70
2023/05/16 02:09:18;;;;;;;20.38;12.80;;;;;;;9.84;100.00;100420.06;4972352;28;21890;-67
2023/05/16 02:11:45;;;;;;;21.80;12.50;;;;;;;9.79;100.00;100417.88;4971068;28;20053;-67
2023/05/16 02:14:12;;;;;;;20.60;12.40;;;;;;;9.62;100.00;100423.34;4955307;28;20124;-68
2023/05/16 02:16:38;;;;;;;21.35;12.48;;;;;;;9.75;100.00;100421.03;4972997;28;20085;-69
2023/05/16 02:19:05;;;;;;;22.80;12.60;;;;;;;9.75;100.00;100426.38;4972664;28;20046;-69
2023/05/16 02:21:32;;;;;;;19.27;12.30;;;;;;;9.82;100.00;100435.50;4972704;28;20058;-70
2023/05/16 02:23:58;;;;;;;27.23;13.13;;;;;;;9.92;100.00;100424.59;4964160;28;20053;-68
2023/05/16 02:26:25;;;;;;;19.55;12.48;;;;;;;9.87;100.00;100441.19;4972429;28;20053;-68
2023/05/16 02:28:51;;;;;;;14.95;11.57;;;;;;;9.78;100.00;100445.66;4972634;28;20047;-71
2023/05/16 02:31:26;;;;;;;18.45;11.20;;;;;;;9.86;100.00;100446.72;4971523;28;20414;-69
2023/05/16 02:33:52;;;;;;;28.98;12.88;;;;;;;9.89;100.00;100446.38;4972485;28;20554;-71
2023/05/16 02:36:20;;;;;;;22.98;13.27;;;;;;;9.85;100.00;100448.53;4985997;28;20046;-70
2023/05/16 02:38:47;;;;;;;25.08;12.65;;;;;;;9.71;100.00;100449.16;4991544;28;20046;-69
2023/05/16 02:41:14;;;;;;;17.13;11.85;;;;;;;9.94;100.00;100452.09;4973624;28;20061;-69
2023/05/16 02:43:40;;;;;;;16.63;12.25;;;;;;;9.97;100.00;100457.97;4991232;28;20423;-69
2023/05/16 02:46:24;;;;;;;18.02;11.88;;;;;;;9.97;100.00;100466.00;4990867;28;20129;-70
2023/05/16 02:48:51;;;;;;;17.10;12.13;;;;;;;10.03;100.00;100470.72;4990101;28;20046;-68
2023/05/16 02:51:20;;;;;;;18.63;12.30;;;;;;;9.95;100.00;100462.63;4990358;28;20141;-69
2023/05/16 02:53:46;;;;;;;22.95;12.23;;;;;;;9.98;100.00;100466.84;4991569;28;20046;-69
2023/05/16 02:56:13;;;;;;;18.13;12.75;;;;;;;9.76;100.00;100479.00;4990395;28;20415;-68
2023/05/16 02:58:40;;;;;;;23.17;13.57;;;;;;;9.88;100.00;100477.69;4990683;28;20038;-67
2023/05/16 03:01:07;;;;;;;17.08;12.52;;;;;;;9.82;100.00;100475.66;4990772;28;20042;-68
2023/05/16 03:03:36;;;;;;;21.58;13.73;;;;;;;9.75;100.00;100488.00;5007429;28;20049;-68
2023/05/16 03:06:03;;;;;;;25.88;12.75;;;;;;;9.77;100.00;100489.53;5010608;28;20463;-69
2023/05/16 03:08:29;;;;;;;23.30;13.35;;;;;;;9.83;100.00;100490.75;5011563;28;20133;-69
2023/05/16 03:10:56;;;;;;;26.58;11.88;;;;;;;9.82;100.00;100499.78;5010383;28;20053;-68
2023/05/16 03:13:23;;;;;;;19.17;12.32;;;;;;;9.87;100.00;100488.56;5010278;28;20136;-68
2023/05/16 03:15:50;;;;;;;21.58;12.60;;;;;;;9.79;100.00;100500.09;5010454;28;20128;-73
2023/05/16 03:18:17;;;;;;;20.67;13.23;;;;;;;9.66;100.00;100505.91;5010542;28;20129;-77
2023/05/16 03:20:43;;;;;;;21.20;14.05;;;;;;;9.41;100.00;100499.56;5009140;28;20121;-75
2023/05/16 03:23:10;;;;;;;26.30;14.73;;;;;;;9.52;100.00;100504.66;5010054;28;20057;-74
2023/05/16 03:25:37;;;;;;;22.60;14.32;;;;;;;9.54;100.00;100508.03;5010109;28;20414;-74
2023/05/16 03:28:06;;;;;;;17.08;14.45;;;;;;;9.62;100.00;100514.41;5010224;28;20042;-76
2023/05/16 03:30:34;;;;;;;24.80;13.73;;;;;;;9.47;100.00;100515.00;5009462;28;20057;-75
2023/05/16 03:33:01;;;;;;;24.38;15.00;;;;;;;9.35;100.00;100512.75;5009011;28;20077;-74
2023/05/16 03:35:27;;;;;;;25.42;14.20;;;;;;;9.47;100.00;100515.00;5010558;28;20068;-75
2023/05/16 03:37:55;;;;;;;28.92;15.18;;;;;;;9.25;100.00;100518.19;5010036;28;20485;-75
2023/05/16 03:40:21;;;;;;;21.98;14.52;;;;;;;9.42;100.00;100524.50;5007791;28;20506;-75
2023/05/16 03:42:48;;;;;;;23.98;14.85;;;;;;;9.56;100.00;100522.06;5008833;28;20050;-75
2023/05/16 03:45:14;;;;;;;25.25;14.85;;;;;;;9.52;100.00;100518.03;5010402;28;20046;-75
2023/05/16 03:47:41;;;;;;;27.45;15.88;;;;;;;9.66;100.00;100526.50;5008950;28;20129;-75
2023/05/16 03:50:08;;;;;;;27.02;15.25;;;;;;;9.47;100.00;100527.53;5009183;28;20057;-76
2023/05/16 03:52:35;;;;;;;21.42;16.17;;;;;;;9.31;100.00;100522.91;5009633;28;20050;-75
2023/05/16 03:55:03;;;;;;;27.70;15.88;;;;;;;9.16;100.00;100519.09;5009399;28;20046;-74
2023/05/16 03:57:31;;;;;;;27.73;16.70;;;;;;;9.37;100.00;100526.78;5009174;28;20046;-75
2023/05/16 03:59:58;;;;;;;27.88;16.10;;;;;;;9.33;100.00;100528.94;5006787;28;20418;-74
2023/05/16 04:02:24;;;;;;;31.85;16.83;;;;;;;9.25;100.00;100526.22;4985652;28;20053;-75
2023/05/16 04:04:51;;;;;;;25.08;16.67;;;;;;;9.30;100.00;100532.78;5008657;28;20108;-75
2023/05/16 04:07:17;;;;;;;30.75;16.35;;;;;;;9.03;100.00;100546.25;5009779;28;20064;-75
2023/05/16 04:09:45;;;;;;;28.80;17.08;;;;;;;9.05;100.00;100545.09;5008980;28;20050;-75
2023/05/16 04:12:12;;;;;;;23.42;16.90;;;;;;;9.24;100.00;100548.63;5007258;28;20049;-74
2023/05/16 04:14:38;;;;;;;29.60;17.67;;;;;;;9.20;100.00;100553.44;5009110;28;20054;-75
2023/05/16 04:17:05;;;;;;;27.27;15.77;;;;;;;9.30;100.00;100558.69;5009130;28;20058;-75
2023/05/16 04:19:31;;;;;;;23.55;15.65;;;;;;;9.03;100.00;100565.84;5009384;28;20042;-76
2023/05/16 04:21:58;;;;;;;25.15;17.35;;;;;;;9.07;100.00;100561.84;5009778;28;20046;-76
2023/05/16 04:24:27;;;;;;;29.73;18.10;;;;;;;9.08;100.00;100568.03;5008395;28;20398;-76
2023/05/16 04:26:54;;;;;;;26.10;16.90;;;;;;;9.02;100.00;100576.69;5009701;28;20056;-76
2023/05/16 04:29:21;;;;;;;35.15;17.25;;;;;;;9.17;100.00;100590.38;5008471;28;20801;-74
2023/05/16 04:31:47;;;;;;;29.40;17.55;;;;;;;9.14;100.00;100575.47;4992148;28;20141;-76
2023/05/16 04:34:15;;;;;;;24.70;17.02;;;;;;;8.98;100.00;100575.31;5012102;28;20512;-76
2023/05/16 04:36:41;;;;;;;23.75;16.05;;;;;;;9.04;100.00;100569.34;5012311;28;20052;-76
2023/05/16 04:39:08;;;;;;;26.63;16.58;;;;;;;9.08;100.00;100581.41;5012278;28;20077;-76
2023/05/16 04:41:35;;;;;;;23.95;16.52;;;;;;;8.99;100.00;100583.19;5012663;28;20049;-74
2023/05/16 04:44:03;;;;;;;54.38;17.83;;;;;;;8.98;100.00;100586.84;5012855;28;20049;-74
2023/05/16 04:46:30;;;;;;;27.23;17.35;;;;;;;9.04;100.00;100588.91;5009588;28;20050;-77
2023/05/16 04:48:56;;;;;;;24.80;17.40;;;;;;;9.01;100.00;100597.25;5012992;28;20056;-75
2023/05/16 04:51:23;;;;;;;25.35;17.63;;;;;;;8.96;100.00;100588.84;5012081;28;20414;-74
2023/05/16 04:53:49;;;;;;;29.95;18.00;;;;;;;9.01;100.00;100589.22;5012689;28;20052;-73
2023/05/16 04:56:16;;;;;;;26.45;17.15;;;;;;;8.92;100.00;100598.19;5011552;28;20141;-75
2023/05/16 04:58:43;;;;;;;29.02;17.42;;;;;;;9.17;100.00;100611.78;5012373;28;20049;-76
2023/05/16 05:01:09;;;;;;;28.92;16.92;;;;;;;9.12;100.00;100609.53;5012273;28;20071;-75
2023/05/16 05:03:36;;;;;;;24.63;16.75;;;;;;;9.12;100.00;100614.06;4993598;28;20042;-74
2023/05/16 05:06:03;;;;;;;26.63;17.42;;;;;;;9.13;100.00;100615.75;4986400;28;20054;-69
2023/05/16 05:08:29;;;;;;;27.05;16.92;;;;;;;8.99;100.00;100619.78;4994038;28;20125;-68
2023/05/16 05:10:56;;;;;;;21.70;16.85;;;;;;;9.03;100.00;100626.53;4992629;28;20130;-69
2023/05/16 05:13:23;;;;;;;23.15;16.75;;;;;;;9.08;100.00;100630.44;4994331;28;20078;-68
2023/05/16 05:15:51;;;;;;;23.58;16.65;;;;;;;9.11;100.00;100636.47;4993647;28;20133;-75
2023/05/16 05:18:17;;;;;;;34.60;19.70;;;;;;;9.12;100.00;100635.47;4973191;28;20480;-75
2023/05/16 05:20:44;;;;;;;28.70;19.00;;;;;;;9.15;100.00;100643.19;4973787;28;20085;-75
2023/05/16 05:23:11;;;;;;;37.50;18.35;;;;;;;9.21;100.00;100645.28;4973805;28;20677;-75
2023/05/16 05:25:38;;;;;;;27.65;17.15;;;;;;;9.16;100.00;100658.25;4974425;28;20129;-75
2023/05/16 05:28:05;;;;;;;26.65;17.55;;;;;;;9.00;100.00;100661.63;4971940;28;20050;-74
2023/05/16 05:30:31;;;;;;;29.88;16.77;;;;;;;9.08;100.00;100659.03;4973470;28;20457;-74
2023/05/16 05:32:58;;;;;;;27.00;17.02;;;;;;;9.02;100.00;100665.84;4971994;28;20051;-76
2023/05/16 05:35:24;;;;;;;27.45;15.80;;;;;;;9.09;100.00;100664.25;4963966;28;20055;-74
2023/05/16 05:37:52;;;;;;;27.98;17.38;;;;;;;9.13;100.00;100669.25;4971893;28;20133;-76
2023/05/16 05:40:18;;;;;;;25.73;15.63;;;;;;;9.25;100.00;100670.78;4956174;28;20073;-75
2023/05/16 05:42:44;;;;;;;29.48;16.05;;;;;;;9.19;100.00;100682.03;4955915;28;20057;-76
2023/05/16 05:45:14;;;;;;;30.05;16.27;;;;;;;9.19;100.00;100685.56;4956070;28;20042;-76
2023/05/16 05:47:41;;;;;;;25.02;14.70;;;;;;;9.25;100.00;100684.16;4972570;28;20046;-75
2023/05/16 05:50:10;;;;;;;20.88;14.35;;;;;;;9.38;100.00;100686.47;4973573;28;20050;-74
2023/05/16 05:52:37;;;;;;;19.33;14.25;;;;;;;9.42;100.00;100687.84;4963323;28;20105;-76
2023/05/16 05:55:04;;;;;;;26.00;14.43;;;;;;;9.41;100.00;100692.34;4972804;28;20050;-77
2023/05/16 05:57:30;;;;;;;24.23;13.88;;;;;;;9.49;100.00;100699.59;4972431;28;20469;-75
2023/05/16 05:59:57;;;;;;;25.27;13.98;;;;;;;9.18;100.00;100699.94;4972758;28;20051;-68
2023/05/16 06:02:23;;;;;;;22.20;14.23;;;;;;;9.41;100.00;100699.53;4989085;28;20041;-69
2023/05/16 06:04:52;;;;;;;22.15;13.55;;;;;;;9.50;100.00;100698.59;4987080;28;20561;-71
2023/05/16 06:07:19;;;;;;;19.30;12.38;;;;;;;9.44;100.00;100701.88;5008249;28;20050;-75
2023/05/16 06:09:46;;;;;;;20.40;11.88;;;;;;;9.33;100.00;100702.97;5011152;28;20061;-76
2023/05/16 06:12:12;;;;;;;22.77;12.80;;;;;;;9.34;100.00;100707.34;5010605;28;20046;-75
2023/05/16 06:14:38;;;;;;;20.70;13.27;;;;;;;9.24;100.00;100706.56;5011734;28;20046;-75
2023/05/16 06:17:05;;;;;;;19.98;12.25;;;;;;;9.25;100.00;100711.75;5011711;28;20133;-75
2023/05/16 06:19:31;;;;;;;17.27;12.02;;;;;;;9.41;100.00;100711.09;5010497;28;20056;-75
2023/05/16 06:21:58;;;;;;;18.88;12.05;;;;;;;9.35;100.00;100711.69;5010229;28;20056;-76
2023/05/16 06:24:25;;;;;;;15.57;11.23;;;;;;;9.45;100.00;100707.09;5009712;28;20485;-75
2023/05/16 06:26:51;;;;;;;19.65;11.90;;;;;;;9.44;100.00;100713.47;4984314;28;20050;-76
2023/05/16 06:29:18;;;;;;;23.67;12.35;;;;;;;9.52;100.00;100713.53;5009839;28;20055;-75
2023/05/16 06:31:45;;;;;;;22.52;12.00;;;;;;;9.53;100.00;100715.22;5009140;28;20050;-74
2023/05/16 06:34:12;;;;;;;18.10;10.82;;;;;;;9.61;100.00;100710.91;5010133;28;20072;-76
2023/05/16 06:36:39;;;;;;;20.70;11.05;;;;;;;9.42;100.00;100723.47;5011478;28;20498;-76
2023/05/16 06:39:05;;;;;;;20.08;11.57;;;;;;;9.35;100.00;100727.75;5010366;28;20402;-73
2023/05/16 06:41:32;;;;;;;20.30;10.00;;;;;;;9.42;100.00;100730.66;5010699;28;20053;-75
2023/05/16 06:43:59;;;;;;;14.77;9.55;;;;;;;9.48;100.00;100733.59;5009552;28;20465;-76
2023/05/16 06:46:25;;;;;;;16.63;9.68;;;;;;;9.49;100.00;100742.47;5009894;28;20560;-75
2023/05/16 06:48:52;;;;;;;18.15;9.63;;;;;;;9.44;100.00;100745.59;5010160;28;20046;-73
2023/05/16 06:51:18;;;;;;;13.32;9.10;;;;;;;9.64;100.00;100742.75;5010554;28;20108;-75
2023/05/16 06:53:45;;;;;;;14.10;8.30;;;;;;;9.72;100.00;100740.16;5008848;28;20104;-73
2023/05/16 06:56:11;;;;;;;16.25;8.27;;;;;;;9.56;100.00;100746.22;5008988;28;20045;-74
2023/05/16 06:58:38;;;;;;;18.85;8.43;;;;;;;9.41;100.00;100753.94;5010735;28;20072;-75
2023/05/16 07:01:05;;;;;;;11.32;8.10;;;;;;;9.46;100.00;100759.66;5008335;28;20525;-73
2023/05/16 07:03:31;;;;;;;14.68;7.35;;;;;;;9.51;100.00;100754.72;4993334;28;20411;-74
2023/05/16 07:05:58;;;;;;;11.55;7.18;;;;;;;9.65;100.00;100763.22;4989632;28;20052;-74
2023/05/16 07:08:24;;;;;;;14.80;6.70;;;;;;;9.31;100.00;100763.88;4990478;28;20723;-76
2023/05/16 07:10:51;;;;;;;16.70;6.53;;;;;;;9.31;100.00;100763.88;4990686;28;20046;-73
2023/05/16 07:13:18;;;;;;;16.00;7.30;;;;;;;9.47;100.00;100776.56;4991297;28;20046;-76
2023/05/16 07:15:44;;;;;;;14.90;6.88;;;;;;;9.39;100.00;100771.13;4991522;28;20046;-77
2023/05/16 07:18:11;;;;;;;14.70;6.97;;;;;;;9.61;100.00;100759.97;4989999;28;20137;-74
2023/05/16 07:20:37;;;;;;;14.32;6.25;;;;;;;9.54;100.00;100770.47;4991776;28;20042;-75
2023/05/16 07:23:04;;;;;;;15.13;6.28;;;;;;;9.59;100.00;100775.38;4990286;28;20415;-76
2023/05/16 07:25:31;;;;;;;14.60;6.40;;;;;;;9.67;100.00;100769.25;4990965;28;20116;-75
2023/05/16 07:27:58;;;;;;;10.95;6.10;;;;;;;9.68;100.00;100782.50;4990909;28;20101;-75
2023/05/16 07:30:25;;;;;;;12.15;6.63;;;;;;;9.75;100.00;100782.69;4990556;28;20466;-75
2023/05/16 07:32:51;;;;;;;10.77;6.45;;;;;;;9.53;100.00;100781.31;4990222;28;20462;-75
2023/05/16 07:35:18;;;;;;;12.93;6.35;;;;;;;9.83;100.00;100777.44;4990859;28;20070;-76
2023/05/16 07:37:45;;;;;;;13.88;6.43;;;;;;;9.86;100.00;100779.81;4990193;28;20046;-75
2023/05/16 07:40:12;;;;;;;14.65;5.50;;;;;;;10.03;100.00;100776.25;4991353;28;20395;-75
2023/05/16 07:42:39;;;;;;;11.55;5.03;;;;;;;10.07;100.00;100776.78;4990885;28;20042;-76
2023/05/16 07:45:06;;;;;;;9.25;4.45;;;;;;;10.19;100.00;100772.00;4991378;28;20050;-75
2023/05/16 07:47:33;;;;;;;9.80;4.60;;;;;;;10.20;100.00;100779.06;4990814;28;20085;-76
2023/05/16 07:49:59;;;;;;;9.70;4.65;;;;;;;10.35;100.00;100776.66;4990384;28;20046;-75
2023/05/16 07:52:26;;;;;;;7.22;3.97;;;;;;;10.14;100.00;100785.91;4989906;28;20047;-76
2023/05/16 07:54:53;;;;;;;9.10;4.45;;;;;;;10.22;100.00;100799.34;4990027;28;20046;-75
2023/05/16 07:57:19;;;;;;;13.35;4.32;;;;;;;10.03;100.00;100796.88;4990181;28;20494;-74
2023/05/16 07:59:51;;;;;;;7.28;3.28;;;;;;;10.10;100.00;100797.94;4990081;28;20134;-75
2023/05/16 08:02:18;;;;;;;11.05;4.07;;;;;;;10.17;100.00;100804.34;4997338;28;20407;-78
2023/05/16 08:04:44;;;;;;;13.48;4.90;;;;;;;9.96;100.00;100804.69;5010187;28;20049;-78
2023/05/16 08:07:12;;;;;;;9.07;3.67;;;;;;;10.15;100.00;100805.50;5013553;28;20046;-75
2023/05/16 08:09:39;;;;;;;11.07;3.90;;;;;;;10.03;100.00;100813.78;5014175;28;20073;-76
2023/05/16 08:12:06;;;;;;;9.30;3.90;;;;;;;10.08;100.00;100820.53;4996288;28;20042;-76
2023/05/16 08:14:32;;;;;;;11.38;4.00;;;;;;;10.24;100.00;100821.50;5012767;28;20096;-77
2023/05/16 08:16:59;;;;;;;15.48;3.80;;;;;;;9.80;100.00;100823.28;5013896;28;20465;-77
2023/05/16 08:19:26;;;;;;;11.88;3.92;;;;;;;9.98;100.00;100842.88;5013413;28;20104;-77
2023/05/16 08:21:53;;;;;;;7.85;3.85;;;;;;;9.91;100.00;100838.28;5004650;28;20056;-77
2023/05/16 08:24:20;;;;;;;6.03;3.70;;;;;;;9.70;100.00;100842.09;5013191;28;20073;-76
2023/05/16 08:26:47;;;;;;;15.48;4.35;;;;;;;9.71;100.00;100849.13;5014056;28;20073;-77
2023/05/16 08:29:13;;;;;;;6.03;3.28;;;;;;;9.86;100.00;100843.28;5012649;28;20057;-78
2023/05/16 08:31:40;;;;;;;7.20;4.03;;;;;;;9.67;100.00;100838.88;5011910;28;20046;-77
2023/05/16 08:34:08;;;;;;;9.82;4.20;;;;;;;9.49;100.00;100845.06;5012222;28;20140;-76
2023/05/16 08:36:37;;;;;;;8.20;4.10;;;;;;;9.75;100.00;100847.88;5013230;28;20104;-77
2023/05/16 08:39:04;;;;;;;11.80;3.85;;;;;;;9.85;100.00;100841.56;5012382;28;20062;-77
2023/05/16 08:41:31;;;;;;;9.05;3.90;;;;;;;9.95;100.00;100842.34;5006065;28;20046;-77
2023/05/16 08:43:58;;;;;;;7.15;4.13;;;;;;;9.69;100.00;100852.97;5012406;28;20105;-77
2023/05/16 08:46:25;;;;;;;8.60;3.83;;;;;;;9.75;100.00;100844.31;5012411;28;20046;-77
2023/05/16 08:48:52;;;;;;;7.75;4.07;;;;;;;9.93;100.00;100839.00;5012803;28;20391;-77
2023/05/16 08:51:20;;;;;;;9.48;3.25;;;;;;;10.11;100.00;100839.81;5012679;28;20081;-73
2023/05/16 08:53:56;;;;;;;6.80;3.25;;;;;;;10.10;100.00;100837.28;5011330;28;20502;-77
2023/05/16 08:56:23;;;;;;;6.63;3.00;;;;;;;10.18;100.00;100834.69;4992983;28;20452;-76
2023/05/16 08:58:53;;;;;;;10.48;3.35;;;;;;;10.43;100.00;100835.72;4992328;28;20474;-76
2023/05/16 09:01:21;;;;;;;8.95;3.50;;;;;;;10.38;100.00;100836.19;4989653;28;20073;-76
2023/05/16 09:03:49;;;;;;;5.53;2.53;;;;;;;10.38;100.00;100833.50;4974774;28;20458;-77
2023/05/16 09:06:16;;;;;;;7.45;2.45;;;;;;;10.56;100.00;100830.81;4974421;28;20139;-76
2023/05/16 09:08:43;;;;;;;7.45;3.10;;;;;;;10.30;100.00;100830.75;4974181;28;20455;-77
2023/05/16 09:11:09;;;;;;;10.15;2.80;;;;;;;10.35;100.00;100831.13;4974067;28;20117;-77
2023/05/16 09:13:37;;;;;;;5.47;2.65;;;;;;;10.42;100.00;100834.03;4972386;28;20142;-77
2023/05/16 09:16:08;;;;;;;8.07;2.65;;;;;;;10.35;100.00;100846.38;4974160;28;20113;-77
2023/05/16 09:18:36;;;;;;;8.55;2.75;;;;;;;10.62;100.00;100848.13;4972466;28;20054;-77
2023/05/16 09:21:05;;;;;;;10.35;2.90;;;;;;;10.65;100.00;100861.19;4974359;28;20418;-77
2023/05/16 09:23:32;;;;;;;10.70;3.22;;;;;;;10.62;100.00;100853.50;4973285;28;20054;-77
2023/05/16 09:26:04;;;;;;;8.20;2.78;;;;;;;10.50;100.00;100851.03;4971235;28;20411;-77
2023/05/16 09:28:30;;;;;;;10.27;2.80;;;;;;;10.45;100.00;100856.03;4973711;28;20062;-77
2023/05/16 09:30:58;;;;;;;7.97;2.63;;;;;;;10.54;100.00;100858.78;4972920;28;20046;-77
2023/05/16 09:33:28;;;;;;;11.35;2.75;;;;;;;10.32;100.00;100855.56;4972826;28;20055;-77
2023/05/16 09:35:59;;;;;;;12.43;2.72;;;;;;;10.42;100.00;100867.06;4969537;28;20046;-76
2023/05/16 09:38:27;;;;;;;10.00;2.50;;;;;;;10.25;100.00;100873.28;4974023;28;20050;-76
2023/05/16 09:40:54;;;;;;;10.85;2.38;;;;;;;10.33;100.00;100870.66;4973630;28;20130;-74
2023/05/16 09:43:27;;;;;;;6.07;2.42;;;;;;;10.45;100.00;100864.06;4974357;28;20055;-74
2023/05/16 09:45:54;;;;;;;21.30;3.22;;;;;;;10.56;100.00;100862.16;4969339;28;20133;-74
2023/05/16 09:48:22;;;;;;;7.97;2.45;;;;;;;10.03;100.00;100878.13;4983086;28;20495;-73
2023/05/16 09:50:51;;;;;;;9.70;2.20;;;;;;;10.14;100.00;100884.25;4973770;28;20499;-77
2023/05/16 09:53:31;;;;;;;5.28;2.13;;;;;;;10.40;100.00;100890.50;4973358;28;20133;-77
2023/05/16 09:56:09;;;;;;;14.80;2.65;;;;;;;10.32;100.00;100889.59;4972592;28;20043;-75
2023/05/16 09:58:41;;;;;;;13.32;2.75;;;;;;;10.60;100.00;100893.88;4972866;28;20047;-77
2023/05/16 10:01:08;;;;;;;;;;;;;;;10.56;100.00;100895.19;4973005;28;20047;-77
2023/05/16 10:03:39;;;;;;;7.72;2.60;;;;;;;10.60;100.00;100882.31;4989087;28;19960;-77
2023/05/16 10:06:07;;;;;;;;;;;;;;;10.46;100.00;100881.84;4991699;28;20046;-77
2023/05/16 10:08:35;;;;;;;10.85;2.63;;;;;;;10.48;100.00;100882.53;4992184;28;19922;-77
2023/05/16 10:11:05;;;;;;;11.27;2.55;;;;;;;10.38;100.00;100897.03;4991235;28;20072;-77
2023/05/16 10:13:36;;;;;;;16.13;2.53;;;;;;;10.66;100.00;100889.75;4990306;28;20042;-77
2023/05/16 10:16:10;;;;;;;11.25;3.25;;;;;;;10.71;100.00;100884.72;4991616;28;20054;-77
2023/05/16 10:18:38;;;;;;;14.25;3.53;;;;;;;10.76;100.00;100886.97;4991566;28;20043;-76
2023/05/16 10:21:13;;;;;;;17.38;2.70;;;;;;;10.70;100.00;100888.41;4991786;28;20053;-76
2023/05/16 10:23:47;;;;;;;11.38;2.70;;;;;;;10.85;100.00;100884.16;4991364;28;20419;-76
2023/05/16 10:26:16;;;;;;;13.27;3.28;;;;;;;11.07;100.00;100890.84;4990707;28;20066;-75
2023/05/16 10:28:43;;;;;;;13.05;2.95;;;;;;;11.35;100.00;100885.28;4990571;28;20054;-76
2023/05/16 10:31:10;;;;;;;9.00;2.53;;;;;;;11.62;100.00;100889.56;4991047;28;20058;-76
2023/05/16 10:33:38;;;;;;;12.93;3.30;;;;;;;11.43;100.00;100885.28;4991489;28;20047;-76
2023/05/16 10:36:14;;;;;;;9.90;2.83;;;;;;;11.53;100.00;100879.78;4991026;28;20392;-75
2023/05/16 10:38:41;;;;;;;14.90;2.72;;;;;;;11.44;100.00;100879.75;4991239;28;20046;-76
2023/05/16 10:41:09;;;;;;;8.52;2.78;;;;;;;11.61;100.00;100895.94;4991230;28;20046;-76
2023/05/16 10:43:35;;;;;;;13.75;2.70;;;;;;;11.22;100.00;100893.75;4990995;28;20069;-77
2023/05/16 10:46:04;;;;;;;9.07;2.70;;;;;;;11.04;100.00;100904.59;4989206;28;20076;-77
2023/05/16 10:48:41;;;;;;;13.15;2.63;;;;;;;11.06;100.00;100912.47;4990064;28;20450;-78
2023/05/16 10:51:22;;;;;;;14.35;3.35;;;;;;;10.64;100.00;100905.97;4985236;28;20072;-75
2023/05/16 10:53:53;;;;;;;16.90;3.53;;;;;;;10.72;100.00;100910.56;4989595;28;20046;-77
2023/05/16 10:56:25;;;;;;;13.40;3.53;;;;;;;10.69;100.00;100902.84;4990797;28;20475;-77
2023/05/16 10:58:53;;;;;;;17.15;3.20;;;;;;;10.55;100.00;100908.75;4990417;28;20042;-77
2023/05/16 11:01:25;;;;;;;10.43;2.67;;;;;;;10.62;100.00;100913.34;4989082;28;20125;-77
2023/05/16 11:03:55;;;;;;;23.60;3.85;;;;;;;10.92;100.00;100912.03;4991562;28;20114;-77
2023/05/16 11:06:24;;;;;;;21.05;3.45;;;;;;;10.72;100.00;100907.88;4983471;28;20097;-78
2023/05/16 11:09:04;;;;;;;15.52;3.22;;;;;;;10.88;100.00;100905.31;4991655;28;20499;-77
2023/05/16 11:11:45;;;;;;;20.90;3.38;;;;;;;11.31;100.00;100922.34;4984854;28;20065;-75
2023/05/16 11:14:24;;;;;;;15.32;2.75;;;;;;;11.15;100.00;100923.09;4991069;28;20050;-77
2023/05/16 11:16:54;;;;;;;15.68;2.70;;;;;;;11.17;100.00;100930.97;4991395;28;20458;-75